createdAt,value
2018-12-20T00:00:33.801Z,28.20
2018-12-20T00:03:04.759Z,27.50
2018-12-20T00:05:34.834Z,25.23
2018-12-20T00:08:09.831Z,21.30
2018-12-20T00:10:44.716Z,27.17
2018-12-20T00:13:19.799Z,25.10
2018-12-20T00:15:55.718Z,21.50
2018-12-20T00:18:30.398Z,24.73
2018-12-20T00:21:01.750Z,28.00
2018-12-20T00:23:37.275Z,25.43
2018-12-20T00:26:10.896Z,31.27
2018-12-20T00:28:46.549Z,26.33
2018-12-20T00:31:20.283Z,23.60
2018-12-20T00:33:55.224Z,28.73
2018-12-20T00:36:30.928Z,27.00
2018-12-20T00:39:06.979Z,25.37
2018-12-20T00:41:40.624Z,25.60
2018-12-20T00:44:15.430Z,25.13
2018-12-20T00:46:51.042Z,18.50
2018-12-20T00:49:26.739Z,18.67
2018-12-20T00:51:57.973Z,19.63
2018-12-20T00:54:33.216Z,21.77
2018-12-20T00:57:08.083Z,21.60
2018-12-20T00:59:46.369Z,22.07
2018-12-20T01:02:19.496Z,26.10
2018-12-20T01:04:48.693Z,22.63
2018-12-20T01:07:28.408Z,20.63
2018-12-20T01:09:59.090Z,25.40
2018-12-20T01:12:29.706Z,24.33
2018-12-20T01:15:05.607Z,21.53
2018-12-20T01:17:38.123Z,22.47
2018-12-20T01:20:11.494Z,19.17
2018-12-20T01:22:40.576Z,20.73
2018-12-20T01:25:15.612Z,31.93
2018-12-20T01:27:49.313Z,19.57
2018-12-20T01:30:24.373Z,17.47
2018-12-20T01:32:57.527Z,21.27
2018-12-20T01:35:33.208Z,16.40
2018-12-20T01:38:06.864Z,14.67
2018-12-20T01:40:38.322Z,16.30
2018-12-20T01:43:13.621Z,17.30
2018-12-20T01:45:49.585Z,16.13
2018-12-20T01:48:20.638Z,17.50
2018-12-20T01:50:55.794Z,14.90
2018-12-20T01:53:27.035Z,16.67
2018-12-20T01:56:02.076Z,13.73
2018-12-20T01:58:37.085Z,14.20
2018-12-20T02:01:08.332Z,13.90
2018-12-20T02:03:42.244Z,16.13
2018-12-20T02:06:17.315Z,13.10
2018-12-20T02:08:50.744Z,13.57
2018-12-20T02:11:22.042Z,14.30
2018-12-20T02:13:55.200Z,13.73
2018-12-20T02:16:30.182Z,14.00
2018-12-20T02:19:06.897Z,15.40
2018-12-20T02:21:38.062Z,12.90
2018-12-20T02:24:13.516Z,16.10
2018-12-20T02:26:47.054Z,13.43
2018-12-20T02:29:21.765Z,14.00
2018-12-20T02:31:57.615Z,12.73
2018-12-20T02:34:32.881Z,14.97
2018-12-20T02:37:06.482Z,16.13
2018-12-20T02:39:41.251Z,15.47
2018-12-20T02:42:12.590Z,11.63
2018-12-20T02:44:48.577Z,13.33
2018-12-20T02:47:28.732Z,12.93
2018-12-20T02:50:04.111Z,18.10
2018-12-20T02:52:35.401Z,12.67
2018-12-20T02:55:16.100Z,13.73
2018-12-20T02:57:49.795Z,14.27
2018-12-20T03:00:24.683Z,15.30
2018-12-20T03:02:55.759Z,17.17
2018-12-20T03:05:28.951Z,14.50
2018-12-20T03:08:02.977Z,15.10
2018-12-20T03:10:49.492Z,13.47
2018-12-20T03:13:20.529Z,14.53
2018-12-20T03:15:51.678Z,14.60
2018-12-20T03:18:27.196Z,16.33
2018-12-20T03:21:06.913Z,16.70
2018-12-20T03:23:42.351Z,15.27
2018-12-20T03:26:13.501Z,15.43
2018-12-20T03:31:36.819Z,14.63
2018-12-20T03:34:12.295Z,16.23
2018-12-20T03:36:43.487Z,14.33
2018-12-20T03:39:19.518Z,16.60
2018-12-20T03:41:50.513Z,15.17
2018-12-20T03:44:23.779Z,15.03
2018-12-20T03:46:57.551Z,14.47
2018-12-20T03:49:26.968Z,14.73
2018-12-20T03:51:57.939Z,13.83
2018-12-20T03:54:29.372Z,16.63
2018-12-20T03:57:04.517Z,16.00
2018-12-20T03:59:39.697Z,14.17
2018-12-20T04:02:13.165Z,15.93
2018-12-20T04:04:48.782Z,15.77
2018-12-20T04:07:20.410Z,13.37
2018-12-20T04:09:56.436Z,14.97
2018-12-20T04:12:27.675Z,13.83
2018-12-20T04:14:58.484Z,14.00
2018-12-20T04:17:33.586Z,13.47
2018-12-20T04:20:08.607Z,14.73
2018-12-20T04:22:42.393Z,15.40
2018-12-20T04:25:18.109Z,16.43
2018-12-20T04:27:51.820Z,14.50
2018-12-20T04:30:22.963Z,17.37
2018-12-20T04:32:56.320Z,18.47
2018-12-20T04:35:31.148Z,17.33
2018-12-20T04:38:02.379Z,16.00
2018-12-20T04:40:31.165Z,18.00
2018-12-20T04:43:04.508Z,18.40
2018-12-20T04:45:46.407Z,18.83
2018-12-20T04:48:15.758Z,16.70
2018-12-20T04:50:49.623Z,14.43
2018-12-20T04:53:20.766Z,19.20
2018-12-20T04:55:54.156Z,19.30
2018-12-20T04:58:29.814Z,18.10
2018-12-20T05:01:03.493Z,23.57
2018-12-20T05:03:38.366Z,16.53
2018-12-20T05:06:14.015Z,23.67
2018-12-20T05:08:47.922Z,21.73
2018-12-20T05:11:21.696Z,19.83
2018-12-20T05:13:55.558Z,18.10
2018-12-20T05:16:24.859Z,18.37
2018-12-20T05:18:54.639Z,18.07
2018-12-20T05:21:24.614Z,19.00
2018-12-20T05:23:58.620Z,16.50
2018-12-20T05:26:32.536Z,16.63
2018-12-20T05:29:06.072Z,16.20
2018-12-20T05:31:40.003Z,16.13
2018-12-20T05:34:15.551Z,15.00
2018-12-20T05:36:49.185Z,15.00
2018-12-20T05:39:20.776Z,17.60
2018-12-20T05:41:53.181Z,17.27
2018-12-20T05:44:24.177Z,17.23
2018-12-20T05:46:59.446Z,16.90
2018-12-20T05:49:28.969Z,18.20
2018-12-20T05:52:00.459Z,21.23
2018-12-20T05:54:34.711Z,16.30
2018-12-20T05:57:05.989Z,14.60
2018-12-20T05:59:37.869Z,19.17
2018-12-20T06:02:12.039Z,15.47
2018-12-20T06:04:45.554Z,14.97
2018-12-20T06:07:20.456Z,15.23
2018-12-20T06:09:55.984Z,13.87
2018-12-20T06:15:05.104Z,17.50
2018-12-20T06:17:36.862Z,16.77
2018-12-20T06:20:16.649Z,16.47
2018-12-20T06:22:51.328Z,16.77
2018-12-20T06:25:34.915Z,18.17
2018-12-20T06:28:10.588Z,17.63
2018-12-20T06:30:39.952Z,16.50
2018-12-20T06:33:14.901Z,16.10
2018-12-20T06:35:46.462Z,15.90
2018-12-20T06:38:18.016Z,15.27
2018-12-20T06:40:48.887Z,14.33
2018-12-20T06:43:24.275Z,16.00
2018-12-20T06:45:51.919Z,13.00
2018-12-20T06:48:19.530Z,14.00
2018-12-20T06:50:59.551Z,13.53
2018-12-20T06:53:27.135Z,15.73
2018-12-20T06:55:54.808Z,15.23
2018-12-20T06:58:22.415Z,17.23
2018-12-20T07:00:50.200Z,18.87
2018-12-20T07:03:17.906Z,13.90
2018-12-20T07:05:45.686Z,18.53
2018-12-20T07:08:13.520Z,14.80
2018-12-20T07:10:41.235Z,15.10
2018-12-20T07:13:08.852Z,18.20
2018-12-20T07:15:36.679Z,15.73
2018-12-20T07:18:04.419Z,12.53
2018-12-20T07:20:32.052Z,13.20
2018-12-20T07:22:59.695Z,14.70
2018-12-20T07:25:27.421Z,11.70
2018-12-20T07:27:55.118Z,12.27
2018-12-20T07:30:22.791Z,16.83
2018-12-20T07:32:50.494Z,13.63
2018-12-20T07:35:18.136Z,15.73
2018-12-20T07:37:45.819Z,17.47
2018-12-20T07:40:13.621Z,17.77
2018-12-20T07:42:41.373Z,17.10
2018-12-20T07:45:09.305Z,22.40
2018-12-20T07:47:36.904Z,20.77
2018-12-20T07:50:06.076Z,20.43
2018-12-20T07:52:33.737Z,22.30
2018-12-20T07:55:01.620Z,20.60
2018-12-20T07:57:29.320Z,23.93
2018-12-20T08:00:01.899Z,18.03
2018-12-20T08:02:29.716Z,18.43
2018-12-20T08:04:58.033Z,18.90
2018-12-20T08:07:28.417Z,19.73
2018-12-20T08:09:56.323Z,18.30
2018-12-20T08:12:23.959Z,20.70
2018-12-20T08:14:51.939Z,18.43
2018-12-20T08:17:19.649Z,20.13
2018-12-20T08:19:47.228Z,16.67
2018-12-20T08:22:14.928Z,17.67
2018-12-20T08:24:42.697Z,23.63
2018-12-20T08:27:10.359Z,21.40
2018-12-20T08:29:39.110Z,21.00
2018-12-20T08:32:06.755Z,20.53
2018-12-20T08:34:34.486Z,16.50
2018-12-20T08:37:02.264Z,21.07
2018-12-20T08:39:29.799Z,14.40
2018-12-20T08:41:57.465Z,12.30
2018-12-20T08:44:25.135Z,15.13
2018-12-20T08:46:54.452Z,17.50
2018-12-20T08:49:22.418Z,11.33
2018-12-20T08:51:50.139Z,9.50
2018-12-20T08:54:17.890Z,9.10
2018-12-20T08:56:45.588Z,8.30
2018-12-20T08:59:13.176Z,9.70
2018-12-20T09:01:41.052Z,14.77
2018-12-20T09:04:08.668Z,9.87
2018-12-20T09:06:36.255Z,9.77
2018-12-20T09:09:06.179Z,10.43
2018-12-20T09:11:33.869Z,9.47
2018-12-20T09:14:01.906Z,7.63
2018-12-20T09:16:30.149Z,5.60
2018-12-20T09:18:57.831Z,7.00
2018-12-20T09:21:25.483Z,8.33
2018-12-20T09:23:53.208Z,8.40
2018-12-20T09:26:21.000Z,7.00
2018-12-20T09:28:48.691Z,5.70
2018-12-20T09:31:16.467Z,5.70
2018-12-20T09:33:44.126Z,4.73
2018-12-20T09:36:11.814Z,5.93
2018-12-20T09:38:39.595Z,4.63
2018-12-20T09:41:07.275Z,4.80
2018-12-20T09:43:34.891Z,7.47
2018-12-20T09:46:02.529Z,5.97
2018-12-20T09:48:30.165Z,6.43
2018-12-20T09:50:57.751Z,6.90
2018-12-20T09:53:25.424Z,7.10
2018-12-20T09:55:53.091Z,6.47
2018-12-20T09:58:20.700Z,4.83
2018-12-20T10:00:48.530Z,5.77
2018-12-20T10:03:16.147Z,5.57
2018-12-20T10:05:47.718Z,3.33
2018-12-20T10:08:16.439Z,3.47
2018-12-20T10:10:44.136Z,3.17
2018-12-20T10:13:11.899Z,3.47
2018-12-20T10:15:39.887Z,3.10
2018-12-20T10:18:17.718Z,3.30
2018-12-20T10:20:45.512Z,2.43
2018-12-20T10:23:13.315Z,2.40
2018-12-20T10:25:41.091Z,2.50
2018-12-20T10:28:08.964Z,2.10
2018-12-20T10:30:36.786Z,2.97
2018-12-20T10:33:04.563Z,2.33
2018-12-20T10:35:32.337Z,2.10
2018-12-20T10:38:00.204Z,1.90
2018-12-20T10:40:27.846Z,1.90
2018-12-20T10:42:55.659Z,3.07
2018-12-20T10:45:23.340Z,1.90
2018-12-20T10:47:51.159Z,1.93
2018-12-20T10:50:18.989Z,2.37
2018-12-20T10:52:46.807Z,4.10
2018-12-20T10:55:14.619Z,2.90
2018-12-20T10:57:42.526Z,2.40
2018-12-20T11:00:10.440Z,2.63
2018-12-20T11:02:43.687Z,5.10
2018-12-20T11:05:17.040Z,2.90
2018-12-20T11:07:50.436Z,3.60
2018-12-20T11:10:23.805Z,2.47
2018-12-20T11:12:59.759Z,2.63
2018-12-20T11:15:27.450Z,2.37
2018-12-20T11:20:47.748Z,4.23
2018-12-20T11:23:15.535Z,3.73
2018-12-20T11:25:43.426Z,3.63
2018-12-20T11:28:11.150Z,3.43
2018-12-20T11:30:38.972Z,3.30
2018-12-20T11:36:06.059Z,2.43
2018-12-20T11:38:33.838Z,2.70
2018-12-20T11:41:13.691Z,6.20
2018-12-20T11:43:41.415Z,4.83
2018-12-20T11:46:09.099Z,4.10
2018-12-20T11:48:36.895Z,4.10
2018-12-20T11:51:04.491Z,2.63
2018-12-20T11:53:32.174Z,4.70
2018-12-20T11:55:59.815Z,3.30
2018-12-20T11:58:27.458Z,2.80
2018-12-20T12:00:55.338Z,5.30
2018-12-20T12:03:23.358Z,3.03
2018-12-20T12:05:51.487Z,3.00
2018-12-20T12:08:19.235Z,4.47
2018-12-20T12:10:47.258Z,2.87
2018-12-20T12:13:14.996Z,4.63
2018-12-20T12:15:42.780Z,2.27
2018-12-20T12:18:10.438Z,4.87
2018-12-20T12:20:38.392Z,9.87
2018-12-20T12:23:06.176Z,4.50
2018-12-20T12:25:33.937Z,5.97
2018-12-20T12:28:01.660Z,2.93
2018-12-20T12:30:38.613Z,5.17
2018-12-20T12:33:06.389Z,2.83
2018-12-20T12:35:34.187Z,4.10
2018-12-20T12:38:02.470Z,3.80
2018-12-20T12:40:30.781Z,4.13
2018-12-20T12:42:58.930Z,5.20
2018-12-20T12:45:32.820Z,2.70
2018-12-20T12:48:03.558Z,2.80
2018-12-20T12:50:32.044Z,7.90
2018-12-20T12:53:00.145Z,2.63
2018-12-20T12:55:28.222Z,4.07
2018-12-20T12:58:04.451Z,1.67
2018-12-20T13:00:27.052Z,4.93
2018-12-20T13:02:54.845Z,2.13
2018-12-20T13:05:26.121Z,2.63
2018-12-20T13:07:53.948Z,3.73
2018-12-20T13:10:21.807Z,2.07
2018-12-20T13:12:50.106Z,4.10
2018-12-20T13:15:18.201Z,2.80
2018-12-20T13:17:46.288Z,4.50
2018-12-20T13:20:16.358Z,1.97
2018-12-20T13:22:44.607Z,2.57
2018-12-20T13:25:12.511Z,4.60
2018-12-20T13:27:40.414Z,5.90
2018-12-20T13:30:10.390Z,2.60
2018-12-20T13:32:38.015Z,2.30
2018-12-20T13:35:05.946Z,3.93
2018-12-20T13:37:39.294Z,2.63
2018-12-20T13:40:07.534Z,3.50
2018-12-20T13:42:35.498Z,3.40
2018-12-20T13:45:04.418Z,4.90
2018-12-20T13:47:38.683Z,2.27
2018-12-20T13:50:08.541Z,3.17
2018-12-20T13:52:51.297Z,5.90
2018-12-20T13:55:20.307Z,2.73
2018-12-20T13:57:54.174Z,3.57
2018-12-20T14:00:22.371Z,4.23
2018-12-20T14:02:57.987Z,4.17
2018-12-20T14:05:26.266Z,3.80
2018-12-20T14:07:58.789Z,4.60
2018-12-20T14:10:24.946Z,3.50
2018-12-20T14:12:53.282Z,3.03
2018-12-20T14:15:41.865Z,5.87
2018-12-20T14:18:13.167Z,2.83
2018-12-20T14:20:41.362Z,2.93
2018-12-20T14:23:15.232Z,2.40
2018-12-20T14:25:43.456Z,2.40
2018-12-20T14:28:22.325Z,2.10
2018-12-20T14:31:08.944Z,1.97
2018-12-20T14:33:37.383Z,10.10
2018-12-20T14:36:05.629Z,4.03
2018-12-20T14:41:35.073Z,3.60
2018-12-20T14:44:25.974Z,3.40
2018-12-20T14:47:07.189Z,6.33
2018-12-20T14:49:50.007Z,5.80
2018-12-20T14:52:18.530Z,3.37
2018-12-20T14:54:52.226Z,2.53
2018-12-20T14:57:26.571Z,4.53
2018-12-20T15:03:03.057Z,3.70
2018-12-20T15:05:38.561Z,2.07
2018-12-20T15:08:14.703Z,8.53
2018-12-20T15:10:49.021Z,2.07
2018-12-20T15:13:28.980Z,3.57
2018-12-20T15:16:03.195Z,4.03
2018-12-20T15:18:47.771Z,4.63
2018-12-20T15:21:34.364Z,3.40
2018-12-20T15:24:10.341Z,2.17
2018-12-20T15:26:51.791Z,3.43
2018-12-20T15:29:38.565Z,2.77
2018-12-20T15:32:12.342Z,2.90
2018-12-20T15:34:50.521Z,2.27
2018-12-20T15:37:28.201Z,3.37
2018-12-20T15:46:18.859Z,3.00
2018-12-20T15:49:05.613Z,6.90
2018-12-20T15:51:39.689Z,3.80
2018-12-20T16:06:36.754Z,4.77
2018-12-20T16:15:16.900Z,3.40
2018-12-20T16:26:31.639Z,4.97
2018-12-20T16:29:05.254Z,7.17
2018-12-20T16:31:42.787Z,4.37
2018-12-20T16:34:31.320Z,5.30
2018-12-20T16:37:09.839Z,5.07
2018-12-20T16:39:42.537Z,5.07
2018-12-20T16:42:17.035Z,6.40
2018-12-20T16:44:55.830Z,4.13
2018-12-20T16:47:36.129Z,3.53
2018-12-20T16:50:11.600Z,3.23
2018-12-20T16:52:46.007Z,4.43
2018-12-20T16:55:23.774Z,3.80
2018-12-20T16:58:03.907Z,3.40
2018-12-20T17:00:40.969Z,3.70
2018-12-20T17:03:26.093Z,3.83
2018-12-20T17:06:04.022Z,2.93
2018-12-20T17:08:48.096Z,3.67
2018-12-20T17:11:31.610Z,2.27
2018-12-20T17:14:13.151Z,2.80
2018-12-20T17:16:51.477Z,3.23
2018-12-20T17:19:23.548Z,3.40
2018-12-20T17:22:00.839Z,2.40
2018-12-20T17:24:35.904Z,2.27
2018-12-20T17:27:16.722Z,3.63
2018-12-20T17:30:03.943Z,3.77
2018-12-20T17:32:38.361Z,5.00
2018-12-20T17:35:16.108Z,4.07
2018-12-20T17:37:49.858Z,3.17
2018-12-20T17:40:21.553Z,3.03
2018-12-20T17:42:55.144Z,4.23
2018-12-20T17:45:33.871Z,4.50
2018-12-20T17:48:09.361Z,4.60
2018-12-20T17:50:38.837Z,4.87
2018-12-20T17:53:13.216Z,3.60
2018-12-20T17:59:04.188Z,4.67
2018-12-20T18:01:46.008Z,4.63
2018-12-20T18:04:32.668Z,4.37
2018-12-20T18:10:13.395Z,4.60
2018-12-20T18:13:01.633Z,8.13
2018-12-20T18:15:43.545Z,6.60
2018-12-20T18:21:34.356Z,5.67
2018-12-20T18:24:24.927Z,3.93
2018-12-20T18:45:24.981Z,3.13
2018-12-20T18:47:59.259Z,7.03
2018-12-20T18:50:35.877Z,4.03
2018-12-20T18:53:23.515Z,8.27
2018-12-20T18:56:07.208Z,5.90
2018-12-20T19:07:48.775Z,5.00
2018-12-20T19:47:06.246Z,4.17
2018-12-20T19:49:40.031Z,3.13
2018-12-20T19:52:14.477Z,6.53
2018-12-20T19:54:49.388Z,5.20
2018-12-20T19:57:35.736Z,4.00
2018-12-20T20:00:12.540Z,3.23
2018-12-20T20:02:53.009Z,3.90
2018-12-20T20:05:28.421Z,3.60
2018-12-20T20:08:05.449Z,3.90
2018-12-20T20:19:11.538Z,4.87
2018-12-20T20:21:47.854Z,5.77
2018-12-20T20:24:22.509Z,5.10
2018-12-20T20:32:37.146Z,5.70
2018-12-20T20:35:17.791Z,3.57
2018-12-20T20:38:04.150Z,4.00
2018-12-20T20:40:45.476Z,3.77
2018-12-20T20:46:22.099Z,5.00
2018-12-20T20:48:54.326Z,5.23
2018-12-20T20:51:28.581Z,5.23
2018-12-20T20:54:04.375Z,9.13
2018-12-20T20:56:40.829Z,11.17
2018-12-20T20:59:21.323Z,13.67
2018-12-20T21:02:01.192Z,12.17
2018-12-20T21:04:42.692Z,6.60
2018-12-20T21:07:20.146Z,6.40
2018-12-20T21:10:00.702Z,7.03
2018-12-20T21:12:44.579Z,6.80
2018-12-20T21:15:25.391Z,5.47
2018-12-20T21:23:30.666Z,7.47
2018-12-20T21:26:17.055Z,6.60
2018-12-20T21:31:57.166Z,4.73
2018-12-20T21:34:38.823Z,5.80
2018-12-20T21:40:33.281Z,3.57
2018-12-20T21:43:21.405Z,3.30
2018-12-20T21:48:54.313Z,5.83
2018-12-20T21:51:29.849Z,4.53
2018-12-20T21:56:56.755Z,7.13
2018-12-20T21:59:30.560Z,6.23
2018-12-20T22:02:05.796Z,7.70
2018-12-20T22:04:43.698Z,4.70
2018-12-20T22:12:55.628Z,4.40
2018-12-20T22:15:29.223Z,7.07
2018-12-20T22:18:01.762Z,4.70
2018-12-20T22:23:17.964Z,8.27
2018-12-20T22:25:51.756Z,6.90
2018-12-20T22:31:07.671Z,7.97
2018-12-20T22:33:54.340Z,5.60
2018-12-20T22:36:29.464Z,4.33
2018-12-20T22:41:52.927Z,4.47
2018-12-20T22:44:39.120Z,5.50
2018-12-20T22:47:13.631Z,5.60
2018-12-20T22:49:53.898Z,5.40
2018-12-20T22:52:25.659Z,6.37
2018-12-20T22:54:58.899Z,5.30
2018-12-20T22:57:33.534Z,3.17
2018-12-20T23:00:15.620Z,4.00
2018-12-20T23:02:46.944Z,3.53
2018-12-20T23:14:24.759Z,3.10
2018-12-20T23:17:00.319Z,3.93
2018-12-20T23:19:35.216Z,2.83
2018-12-20T23:22:06.394Z,3.20
2018-12-20T23:24:39.714Z,5.43
2018-12-20T23:27:15.708Z,3.53
2018-12-20T23:29:50.584Z,3.47
2018-12-20T23:32:24.176Z,4.67
2018-12-20T23:34:59.913Z,4.03
2018-12-20T23:37:33.046Z,2.60
2018-12-20T23:40:08.065Z,3.67
2018-12-20T23:42:36.995Z,3.40
2018-12-20T23:45:12.285Z,4.60
2018-12-20T23:47:43.743Z,2.60
2018-12-20T23:50:18.828Z,4.60
2018-12-20T23:52:50.107Z,5.73
2018-12-20T23:55:25.331Z,2.90
2018-12-20T23:58:03.271Z,4.63
